Weather observations for the past three days for
Toksook Bay
Metric (Imperial)
Date Time (akdt) Wind (kph) Vis. (km) Weather Sky Cond. Temperature (ºC) Relative Humidity Wind Chill (°C) Heat Index (°C) Pressure Precipitation (cm)
Air Dwpt 6 hour altimeter (cm) sea level (mb) 1 hr 3 hr 6 hr
Max. Min.
02 14:56 NW 30 G 41 16.09 Overcast OVC012 -0.6 -3.3 82% -7 75.9 1012.2
02 13:56 W 26 16.09 Overcast OVC012 -0.6 -2.8 85% -6 75.82 1011.4
02 12:56 W 28 16.09 Overcast OVC014 0 -2.2 85% -6 75.72 1010.1
02 11:56 W 30 3.22 Light Snow Fog/Mist BKN010 OVC016 -0.6 -1.1 96% -7 75.64 1008.9
02 10:56 NW 26 16.09 Overcast OVC006 -1.1 -2.2 92% -7 75.54 1007.7
02 09:56 NW 20 16.09 Overcast OVC006 -1.1 -1.7 0 -1.1 96% -6 75.44 1006.3
02 08:56 NW 20 14.48 Light Snow OVC006 -1.1 -1.7 96% -6 75.34 1005.1
02 07:56 NW 30 4.83 Light Snow Fog/Mist BKN006 OVC035 -0.6 -1.1 96% -7 75.21 1003.3
02 06:56 NW 30 4.83 Light Snow Fog/Mist BKN006 OVC018 -0.6 -1.1 96% -7 75.13 1002.2
02 05:56 W 24 6.44 Light Snow Fog/Mist SCT006 BKN010 OVC015 -0.6 -0.6 100% -6 75.06 1001.0
02 04:56 W 22 8.05 Light Snow Fog/Mist FEW011 OVC038 0 -0.6 96% -5 74.96 999.8
02 03:56 W 17 6.44 Light Snow Fog/Mist FEW005 OVC019 0 0 1.1 0 100% -4 74.9 999.0
02 02:56 W 17 14.48 Light Snow OVC011 0 0 100% -4 74.83 998.1
02 01:56 W 9 16.09 Unknown Precip FEW003 BKN018 OVC033 0.6 0 96% -2 74.75 997.2
02 00:56 Calm 3.22 Light Rain Fog/Mist SCT015 OVC031 0.6 0.6 100% 74.7 996.3
01 23:56 Calm 3.22 Light Rain Fog/Mist FEW004 SCT011 OVC033 0.6 0.6 100% 74.63 995.5
01 22:56 Calm 1.61 Light Rain Fog/Mist BKN004 OVC011 0.6 0.6 100% 74.55 994.5
01 21:56 Calm 16.09 Overcast OVC006 1.1 0.6 4.4 1.1 97% 74.47 993.5
01 20:56 Calm 16.09 Overcast OVC006 1.7 0.6 93% 74.42 992.6
01 19:56 E 6 16.09 Overcast OVC006 1.7 1.1 96% 74.37 991.9
01 18:56 E 7 4.02 Fog/Mist OVC004 1.7 1.1 96% -0 74.32 991.4
01 17:56 E 9 16.09 Overcast OVC006 2.8 2.2 96% 1 74.3 990.8
01 16:56 E 11 12.87 Overcast BKN008 OVC019 3.9 2.2 89% 1 74.27 990.5
01 15:56 E 11 16.09 Overcast BKN010 OVC014 3.9 2.2 4.4 2.8 89% 1 74.22 990.0
01 14:56 E 9 16.09 Overcast FEW004 SCT014 OVC024 3.9 2.2 89% 2 74.19 989.7
01 13:56 E 11 6.44 Fog/Mist OVC006 3.3 2.8 97% 1 74.19 989.5
01 12:56 NE 9 6.44 Light Rain Fog/Mist OVC006 3.9 2.8 93% 2 74.17 989.4
01 11:56 NE 13 16.09 Overcast OVC006 3.3 2.2 93% 0 74.14 989.1
01 10:56 NE 13 6.44 Unknown Precip Fog/Mist OVC008 3.3 2.2 93% 0 74.14 988.9
01 09:56 NE 13 16.09 Light Rain OVC008 2.8 2.2 2.8 1.1 96% -0 74.12 988.7
01 08:56 NE 11 16.09 Light Rain OVC008 2.2 1.7 97% -1 74.12 988.7
01 07:56 N 7 14.48 Unknown Precip OVC006 2.2 1.7 97% 0 74.14 988.8
01 06:56 N 6 11.27 Unknown Precip OVC006 1.7 1.1 96% 74.14 989.0
01 05:56 N 6 8.05 Unknown Precip Fog/Mist OVC008 1.7 1.1 96% 74.17 989.3
01 04:56 NE 13 6.44 Unknown Precip Fog/Mist FEW014 BKN020 OVC027 1.1 1.1 100% -2 74.19 989.6
01 03:56 NE 15 16.09 Overcast OVC006 1.7 1.1 2.8 1.7 96% -2 74.22 989.9
01 02:56 NE 20 16.09 Overcast OVC008 1.7 1.1 96% -3 74.24 990.2
01 01:56 NE 22 16.09 Unknown Precip BKN010 BKN020 OVC060 1.7 1.1 96% -3 74.24 990.4
01 00:56 NE 26 16.09 Overcast BKN018 BKN036 OVC100 2.2 1.1 93% -3 74.24 990.5
30 23:56 NE 24 16.09 Light Rain BKN019 OVC085 2.8 1.7 93% -2 74.3 990.9
30 22:56 NE 26 16.09 Light Rain BKN017 BKN023 OVC047 2.2 2.2 100% -3 74.3 991.1
30 21:56 NE 20 16.09 Light Rain OVC015 2.2 2.2 2.8 1.7 100% -2 74.32 991.3
30 20:56 NE 26 16.09 Light Rain OVC016 2.2 2.2 100% -3 74.32 991.5
30 19:56 NE 30 16.09 Overcast OVC018 2.2 2.2 100% -3 74.35 991.6
30 18:56 NE 28 8.05 Unknown Precip Fog/Mist OVC019 2.2 2.2 100% -3 74.37 992.2
30 17:56 NE 37 11.27 Overcast and Breezy OVC015 2.2 2.2 100% -4 74.42 992.7
30 16:56 NE 31 6.44 Light Rain Fog/Mist BKN013 OVC019 2.2 1.7 97% -3 74.47 993.3
30 15:56 NE 31 11.27 Light Rain BKN017 OVC023 1.7 1.7 2.2 0.6 100% -4 74.52 993.9
30 14:56 NE 33 16.09 Light Rain and Breezy SCT016 BKN022 OVC027 1.7 1.7 100% -4 74.57 0.0
30 13:56 NE 31 16.09 Rain BKN021 OVC032 1.7 0.6 93% -4 74.6 995.0
30 12:56 NE 31 14.48 Light Snow BKN008 BKN013 OVC026 1.7 1.1 96% -4 74.63 995.5
30 11:56 NE 30 12.87 Light Snow SCT008 OVC026 1.1 0.6 97% -5 74.65 995.9
30 10:56 NE 30 4.83 Light Snow Fog/Mist FEW008 BKN029 OVC041 0.6 0.6 100% -5 74.7 996.3
30 09:56 NE 33 4.83 Light Snow Fog/Mist and Breezy BKN023 OVC035 0.6 0 0.6 0 96% -6 74.73 996.8
30 08:56 NE 30 6.44 Light Snow Fog/Mist FEW008 SCT017 OVC022 0.6 0 96% -5 74.78 997.4
30 07:56 NE 28 8.05 Light Snow Fog/Mist BKN008 BKN013 OVC026 0.6 0 96% -5 74.8 997.9
30 06:56 NE 28 4.83 Light Snow Fog/Mist OVC006 0 0 100% -6 74.85 998.6
30 05:56 NE 24 8.05 Light Snow Fog/Mist OVC006 0 0 100% -5 74.93 999.5
30 04:56 NE 26 4.02 Light Snow Fog/Mist OVC006 0 0 100% -6 74.98 1000.2
30 03:56 NE 28 6.44 Light Snow Fog/Mist OVC006 0 0 100% -6 75.03 1000.8
30 02:56 E 20 4.02 Light Snow OVC004 0 0 0% 75.08 0.0
30 01:56 E 20 4.83 Light Snow Fog/Mist OVC004 0 0 100% -5 75.13 1002.1
30 00:56 E 20 16.09 Unknown Precip OVC004 0 0 100% -5 75.16 1002.6
29 23:56 E 19 6.44 Light Snow Fog/Mist OVC004 0 0 100% -5 75.18 1002.9
29 22:56 E 24 9.66 Fog/Mist OVC004 0 0 100% -5 75.18 1003.0
29 21:56 E 28 11.27 Overcast OVC004 0.6 0 1.7 0.6 96% -5 75.21 1003.1
29 20:56 E 22 6.44 Fog/Mist OVC004 0.6 0 96% -4 75.21 1003.1
29 19:56 E 26 9.66 Light Rain Fog/Mist OVC004 0.6 0 96% -5 75.21 1003.2
29 18:56 SE 37 8.05 Fog/Mist and Breezy OVC004 0.6 0 96% -6 75.21 1003.1
29 17:56 SE 31 11.27 Light Rain OVC004 1.1 0 92% -5 75.21 1003.3
29 16:56 SE 33 11.27 Light Rain and Breezy OVC004 1.1 0 92% -5 75.21 1003.3
29 15:56 SE 39 9.66 Fog/Mist and Breezy OVC004 1.7 0.6 1.7 0 93% -5 75.21 1003.2
Date Time (akdt) Wind (kph) Vis. (km) Weather Sky Cond. Air Dwpt Max. Min. Relative Humidity Wind Chill (°C) Heat Index (°C) altimeter (cm) sea level (mb) 1 hr 3 hr 6 hr
6 hour
Temperature (ºC) Pressure Precipitation (cm)